Time;durP1;ratioP1;P1;durP2;ratioP2;P2;SDS_P1;SDS_P2;PMS_P1;PMS_P2;Temp;Humidity;BMP_temperature;BMP_pressure;BME280_temperature;BME280_humidity;BME280_pressure;Samples;Min_cycle;Max_cycle;Signal;HPM_P1;HPM_P2
2022/12/05 00:02:02;;;;;;;37.00;33.50;;;;;;;0.19;100.00;98276.10;104688;1329;22274;-91
2022/12/05 00:04:51;;;;;;;35.60;32.50;;;;;;;0.16;100.00;98275.02;104983;1304;22012;31
2022/12/05 00:07:27;;;;;;;37.70;34.20;;;;;;;0.17;100.00;98274.67;101428;1292;22352;31
2022/12/05 00:09:55;;;;;;;38.30;34.30;;;;;;;0.15;100.00;98269.42;104793;1326;22229;-91
2022/12/05 00:12:24;;;;;;;39.20;35.40;;;;;;;0.10;100.00;98266.54;104852;1330;22146;-93
2022/12/05 00:14:52;;;;;;;39.80;35.90;;;;;;;0.07;100.00;98270.49;105143;1300;22270;-88
2022/12/05 00:17:20;;;;;;;37.30;33.70;;;;;;;0.05;100.00;98271.69;105035;1301;22058;-84
2022/12/05 00:19:48;;;;;;;37.30;33.80;;;;;;;0.04;100.00;98263.23;105381;1324;22188;-88
2022/12/05 00:22:23;;;;;;;36.30;33.00;;;;;;;0.03;100.00;98252.23;105190;1301;22198;-91
2022/12/05 00:24:51;;;;;;;32.60;29.60;;;;;;;0.02;100.00;98254.90;104906;1323;22229;-89
2022/12/05 00:27:19;;;;;;;34.60;31.40;;;;;;;0.04;100.00;98237.10;105307;1314;22149;-93
2022/12/05 00:29:47;;;;;;;35.70;32.00;;;;;;;-0.01;100.00;98233.21;104940;1329;22197;-87
2022/12/05 00:32:15;;;;;;;37.00;33.50;;;;;;;-0.07;100.00;98231.55;104958;1328;22227;-88
2022/12/05 00:34:43;;;;;;;33.70;30.50;;;;;;;-0.11;100.00;98232.63;104998;1329;22212;-88
2022/12/05 00:37:11;;;;;;;33.20;30.30;;;;;;;-0.08;100.00;98239.33;105025;1305;22115;-86
2022/12/05 00:39:39;;;;;;;32.00;29.10;;;;;;;-0.10;100.00;98234.23;105123;1290;22463;-85
2022/12/05 00:42:07;;;;;;;35.30;32.00;;;;;;;-0.07;100.00;98228.91;105369;1300;22171;-91
2022/12/05 00:44:35;;;;;;;32.50;29.40;;;;;;;-0.09;100.00;98225.89;105125;1301;23240;-88
2022/12/05 00:47:03;;;;;;;30.50;27.70;;;;;;;-0.10;100.00;98225.20;105097;1322;22117;-90
2022/12/05 00:49:31;;;;;;;36.20;32.90;;;;;;;-0.13;100.00;98232.33;104924;1329;22220;-88
2022/12/05 00:51:58;;;;;;;31.30;28.40;;;;;;;-0.16;100.00;98231.40;104913;1328;22131;-90
2022/12/05 00:54:37;;;;;;;31.00;28.20;;;;;;;-0.17;100.00;98233.93;105431;1300;23166;-90
2022/12/05 00:57:05;;;;;;;31.40;28.70;;;;;;;-0.17;100.00;98234.66;105240;1298;22241;-88
2022/12/05 00:59:33;;;;;;;32.40;29.60;;;;;;;-0.16;100.00;98232.57;104884;1317;21945;-91
2022/12/05 01:02:08;;;;;;;31.50;28.70;;;;;;;-0.14;100.00;98228.96;105134;1303;23109;-87
2022/12/05 01:04:43;;;;;;;30.50;27.70;;;;;;;-0.11;100.00;98228.80;104971;1300;22059;-87
2022/12/05 01:07:18;;;;;;;33.60;30.50;;;;;;;-0.12;100.00;98224.26;106024;1298;23455;31
2022/12/05 01:09:52;;;;;;;31.10;28.30;;;;;;;-0.14;100.00;98225.38;97294;1286;22476;-84
2022/12/05 01:12:27;;;;;;;31.40;28.50;;;;;;;-0.17;100.00;98226.06;104358;1294;22673;31
2022/12/05 01:14:55;;;;;;;31.30;28.60;;;;;;;-0.14;100.00;98227.38;105510;1291;22273;-90
2022/12/05 01:17:23;;;;;;;35.40;32.20;;;;;;;-0.12;100.00;98221.33;104998;1329;23018;-86
2022/12/05 01:19:51;;;;;;;31.60;28.80;;;;;;;-0.08;100.00;98213.88;105376;1312;23096;-91
2022/12/05 01:22:19;;;;;;;31.60;28.80;;;;;;;-0.02;100.00;98228.48;104917;1314;21944;-90
2022/12/05 01:24:47;;;;;;;32.00;29.10;;;;;;;0.02;100.00;98233.66;105070;1299;21992;-90
2022/12/05 01:27:15;;;;;;;32.80;29.70;;;;;;;0.04;100.00;98232.91;105376;1299;22156;-88
2022/12/05 01:29:48;;;;;;;35.40;32.30;;;;;;;0.02;100.00;98227.11;105735;1293;23984;31
2022/12/05 01:32:24;;;;;;;33.70;30.80;;;;;;;0.01;100.00;98221.25;105852;1293;24605;-93
2022/12/05 01:34:59;;;;;;;32.20;29.40;;;;;;;0.02;100.00;98216.87;105135;1285;22667;31
2022/12/05 01:37:33;;;;;;;;;;;;;;;0.03;100.00;98218.45;105707;1300;22515;31
2022/12/05 01:40:08;;;;;;;31.10;28.40;;;;;;;0.00;100.00;98220.00;106507;1291;23911;31
2022/12/05 01:42:42;;;;;;;29.90;27.30;;;;;;;0.00;100.00;98217.14;106337;1298;22302;31
2022/12/05 01:45:38;;;;;;;32.00;29.20;;;;;;;-0.02;100.00;98216.23;105765;1290;22456;31
2022/12/05 01:48:17;;;;;;;33.30;30.30;;;;;;;-0.05;100.00;98213.33;105552;1289;22316;-90
2022/12/05 01:50:47;;;;;;;32.90;29.90;;;;;;;-0.08;100.00;98215.41;104933;1306;22209;-85
2022/12/05 01:53:16;;;;;;;32.30;29.20;;;;;;;-0.11;100.00;98216.38;105041;1293;22214;-88
2022/12/05 01:55:52;;;;;;;33.40;30.40;;;;;;;-0.14;100.00;98223.24;106001;1302;21903;-84
2022/12/05 01:58:31;;;;;;;29.40;26.90;;;;;;;-0.14;100.00;98227.61;106223;1295;22411;31
2022/12/05 02:01:05;;;;;;;33.80;30.90;;;;;;;-0.12;100.00;98229.63;106829;1292;22365;31
2022/12/05 02:03:43;;;;;;;30.80;28.10;;;;;;;-0.10;100.00;98231.27;99868;1295;22760;31
2022/12/05 02:06:17;;;;;;;32.20;29.10;;;;;;;-0.11;100.00;98231.50;106738;1294;24039;31
2022/12/05 02:08:53;;;;;;;33.00;29.80;;;;;;;-0.12;100.00;98232.98;105460;1286;22655;31
2022/12/05 02:11:29;;;;;;;35.20;31.90;;;;;;;-0.14;100.00;98227.48;105827;1295;22726;31
2022/12/05 02:14:13;;;;;;;33.50;30.00;;;;;;;-0.17;100.00;98222.89;106097;1284;23102;31
2022/12/05 02:16:46;;;;;;;35.40;32.20;;;;;;;-0.23;100.00;98218.30;105675;1300;22457;31
2022/12/05 02:19:47;;;;;;;31.60;28.80;;;;;;;-0.21;100.00;98208.27;105681;1286;23639;31
2022/12/05 02:22:50;;;;;;;34.10;31.10;;;;;;;-0.20;100.00;98207.03;106939;1291;22558;31
2022/12/05 02:25:40;;;;;;;34.00;30.90;;;;;;;-0.18;100.00;98215.60;105539;1320;22329;-83
2022/12/05 02:28:47;;;;;;;34.20;31.00;;;;;;;-0.19;100.00;98218.55;106356;1300;23202;31
2022/12/05 02:31:40;;;;;;;35.30;31.60;;;;;;;-0.22;100.00;98210.80;97862;1275;22693;31
2022/12/05 02:34:25;;;;;;;33.20;30.10;;;;;;;-0.23;100.00;98203.35;105325;1292;22297;-82
2022/12/05 02:37:32;;;;;;;34.50;31.60;;;;;;;-0.24;100.00;98198.51;106428;1299;22783;31
2022/12/05 02:40:21;;;;;;;33.50;30.40;;;;;;;-0.23;100.00;98193.13;106510;1292;22295;31
2022/12/05 02:43:06;;;;;;;30.50;27.70;;;;;;;-0.20;100.00;98187.59;106285;1300;22315;31
2022/12/05 02:45:44;;;;;;;32.10;29.20;;;;;;;-0.21;100.00;98186.86;106211;1301;22291;31
2022/12/05 02:48:33;;;;;;;28.60;26.10;;;;;;;-0.17;100.00;98193.09;106674;1285;22289;31
2022/12/05 02:51:27;;;;;;;30.80;28.20;;;;;;;-0.21;100.00;98192.08;106597;1288;22317;31
2022/12/05 02:54:07;;;;;;;31.80;29.20;;;;;;;-0.08;100.00;98205.66;106593;1293;22369;31
2022/12/05 02:56:45;;;;;;;33.50;30.60;;;;;;;-0.04;100.00;98199.21;105547;1301;22306;31
2022/12/05 02:59:20;;;;;;;32.90;30.00;;;;;;;-0.04;100.00;98190.04;105907;1301;22318;31
2022/12/05 03:01:56;;;;;;;30.50;27.90;;;;;;;-0.05;100.00;98180.23;106552;1287;23179;31
2022/12/05 03:04:32;;;;;;;30.20;27.50;;;;;;;-0.03;100.00;98174.98;106883;1279;22222;31
2022/12/05 03:07:11;;;;;;;28.10;25.60;;;;;;;0.04;100.00;98174.30;106922;1285;22299;31
2022/12/05 03:09:53;;;;;;;27.70;25.30;;;;;;;0.10;100.00;98185.91;106643;1289;22360;31
2022/12/05 03:12:41;;;;;;;29.00;26.50;;;;;;;0.11;100.00;98206.44;106728;1285;22226;31
2022/12/05 03:15:30;;;;;;;29.50;27.10;;;;;;;0.06;100.00;98215.23;106633;1285;22280;31
2022/12/05 03:18:13;;;;;;;31.10;28.40;;;;;;;0.10;100.00;98221.01;101937;1285;23216;-87
2022/12/05 03:20:56;;;;;;;33.30;30.30;;;;;;;0.14;100.00;98229.11;104748;1298;22509;-84
2022/12/05 03:23:40;;;;;;;33.70;30.80;;;;;;;0.17;100.00;98243.15;105121;1301;22105;-84
2022/12/05 03:26:37;;;;;;;32.30;29.50;;;;;;;0.19;100.00;98250.83;105464;1296;22382;-85
2022/12/05 03:29:32;;;;;;;31.40;28.60;;;;;;;0.23;100.00;98249.09;102284;1277;23641;-89
2022/12/05 03:32:18;;;;;;;34.40;31.40;;;;;;;0.29;100.00;98249.83;104873;1329;22191;-91
2022/12/05 03:35:12;;;;;;;40.80;37.30;;;;;;;0.37;100.00;98250.59;105283;1301;22075;31
2022/12/05 03:37:55;;;;;;;44.60;40.80;;;;;;;0.41;100.00;98254.29;105416;1299;23792;31
2022/12/05 03:40:29;;;;;;;38.30;35.00;;;;;;;0.36;100.00;98246.05;105518;1300;21933;-85
2022/12/05 03:43:36;;;;;;;36.80;33.40;;;;;;;0.32;100.00;98244.51;105745;1277;22312;31
2022/12/05 03:46:17;;;;;;;34.90;31.60;;;;;;;0.30;100.00;98234.10;104960;1323;22138;-84
2022/12/05 03:49:08;;;;;;;34.10;31.00;;;;;;;0.28;100.00;98222.20;105475;1293;22202;-84
2022/12/05 03:51:43;;;;;;;34.30;31.10;;;;;;;0.25;100.00;98213.55;105846;1300;23122;-91
2022/12/05 03:54:24;;;;;;;32.70;29.80;;;;;;;0.21;100.00;98214.73;105114;1284;22260;-88
2022/12/05 03:57:12;;;;;;;31.20;28.40;;;;;;;0.20;100.00;98227.65;105348;1294;24457;31
2022/12/05 03:59:53;;;;;;;33.60;30.60;;;;;;;0.14;100.00;98233.35;106283;1301;22296;31
2022/12/05 04:02:44;;;;;;;34.30;31.40;;;;;;;0.23;100.00;98236.30;106351;1297;24364;31
2022/12/05 04:05:39;;;;;;;36.00;32.90;;;;;;;0.24;100.00;98226.46;105538;1298;22416;-84
2022/12/05 04:08:25;;;;;;;33.00;30.00;;;;;;;0.17;100.00;98216.73;105797;1297;24464;-86
2022/12/05 04:11:08;;;;;;;31.50;28.60;;;;;;;0.24;100.00;98220.63;106542;1286;23598;31
2022/12/05 04:13:51;;;;;;;35.60;32.40;;;;;;;0.27;100.00;98212.40;106558;1291;22763;31
2022/12/05 04:22:35;;;;;;;30.90;28.20;;;;;;;0.28;100.00;98200.61;104985;1285;22306;31
2022/12/05 04:25:33;;;;;;;33.10;30.20;;;;;;;0.27;100.00;98199.35;106643;1286;22269;31
2022/12/05 04:28:16;;;;;;;29.30;26.80;;;;;;;0.32;100.00;98202.34;105287;1326;22088;-83
2022/12/05 04:31:21;;;;;;;31.60;28.80;;;;;;;0.26;100.00;98192.46;107030;1283;22347;31
2022/12/05 04:34:13;;;;;;;30.70;28.00;;;;;;;0.35;100.00;98203.27;106690;1284;22453;31
2022/12/05 04:36:56;;;;;;;37.30;34.00;;;;;;;0.29;100.00;98195.93;104391;1294;22456;-87
2022/12/05 04:39:53;;;;;;;33.10;30.10;;;;;;;0.26;100.00;98196.80;104617;1331;22117;-89
2022/12/05 04:42:25;;;;;;;31.80;28.90;;;;;;;0.25;100.00;98192.94;104778;1332;22111;-91
2022/12/05 04:44:59;;;;;;;29.70;27.10;;;;;;;0.27;100.00;98187.12;104871;1326;22210;-90
2022/12/05 04:47:33;;;;;;;29.90;27.40;;;;;;;0.27;100.00;98183.52;104707;1332;22210;-87
2022/12/05 04:50:02;;;;;;;29.60;27.10;;;;;;;0.28;100.00;98180.46;104604;1332;22198;-89
2022/12/05 04:52:32;;;;;;;28.10;25.70;;;;;;;0.29;100.00;98180.64;105053;1317;22289;-88
2022/12/05 04:55:16;;;;;;;32.20;29.40;;;;;;;0.32;100.00;98177.05;104792;1326;22154;-88
2022/12/05 04:57:56;;;;;;;33.30;30.40;;;;;;;0.28;100.00;98177.02;104969;1303;21903;-87
2022/12/05 05:00:28;;;;;;;33.20;30.40;;;;;;;0.21;100.00;98173.03;104747;1332;22257;-92
2022/12/05 05:03:15;;;;;;;31.60;28.80;;;;;;;0.19;100.00;98163.91;104876;1329;22219;-90
2022/12/05 05:05:47;;;;;;;28.40;25.80;;;;;;;0.17;100.00;98156.34;104910;1330;22237;-87
2022/12/05 05:08:20;;;;;;;26.80;24.40;;;;;;;0.18;100.00;98160.33;104903;1312;22121;-91
2022/12/05 05:11:07;;;;;;;29.90;27.30;;;;;;;0.19;100.00;98165.45;104843;1326;22209;-92
2022/12/05 05:13:35;;;;;;;18.10;16.60;;;;;;;0.20;100.00;98170.94;104829;1331;22122;-92
2022/12/05 05:16:03;;;;;;;34.60;31.70;;;;;;;0.18;100.00;98171.36;104793;1323;22115;-93
2022/12/05 05:18:32;;;;;;;35.60;32.30;;;;;;;0.16;100.00;98172.09;104609;1332;22826;-93
2022/12/05 05:21:00;;;;;;;33.60;30.70;;;;;;;0.18;100.00;98172.89;104550;1335;22240;-91
2022/12/05 05:23:28;;;;;;;32.30;29.40;;;;;;;0.20;100.00;98171.71;104450;1333;22275;-93
2022/12/05 05:25:56;;;;;;;30.00;27.20;;;;;;;0.22;100.00;98172.30;104509;1331;22235;-91
2022/12/05 05:28:24;;;;;;;28.30;25.90;;;;;;;0.22;100.00;98169.08;104865;1332;22259;-91
2022/12/05 05:30:52;;;;;;;30.90;28.30;;;;;;;0.21;100.00;98169.37;104787;1332;22104;-88
2022/12/05 05:33:20;;;;;;;37.70;34.50;;;;;;;0.20;100.00;98171.63;104979;1330;22262;-84
2022/12/05 05:35:48;;;;;;;35.70;32.50;;;;;;;0.18;100.00;98169.45;105074;1302;21889;-88
2022/12/05 05:38:16;;;;;;;33.10;30.30;;;;;;;0.16;100.00;98164.59;105025;1320;22223;-91
2022/12/05 05:40:44;;;;;;;34.90;31.90;;;;;;;0.14;100.00;98170.08;104899;1329;22100;-93
2022/12/05 05:43:12;;;;;;;30.90;28.20;;;;;;;0.16;100.00;98154.61;104906;1329;22184;-91
2022/12/05 05:45:40;;;;;;;31.10;28.40;;;;;;;0.19;100.00;98145.57;104815;1329;23089;-91
2022/12/05 05:48:08;;;;;;;31.40;28.60;;;;;;;0.17;100.00;98146.32;105138;1322;22088;-93
2022/12/05 05:50:36;;;;;;;32.00;29.30;;;;;;;0.17;100.00;98150.23;104901;1328;22192;-91
2022/12/05 05:53:11;;;;;;;29.30;26.60;;;;;;;0.16;100.00;98146.45;105014;1328;21921;-90
2022/12/05 05:55:40;;;;;;;32.70;30.00;;;;;;;0.14;100.00;98146.81;105160;1316;22208;-92
2022/12/05 05:58:08;;;;;;;32.40;29.60;;;;;;;0.12;100.00;98143.20;105051;1295;22126;-88
2022/12/05 06:00:36;;;;;;;31.30;28.60;;;;;;;0.08;100.00;98149.73;105190;1300;22223;-90
2022/12/05 06:03:04;;;;;;;34.60;31.60;;;;;;;0.09;100.00;98154.25;104852;1329;22203;-91
2022/12/05 06:05:40;;;;;;;32.60;29.30;;;;;;;0.11;100.00;98156.95;105478;1300;22010;31
2022/12/05 06:08:08;;;;;;;37.30;34.20;;;;;;;0.10;100.00;98162.06;105061;1298;22118;-90
2022/12/05 06:10:38;;;;;;;32.20;29.20;;;;;;;0.07;100.00;98163.74;104804;1330;22257;-90
2022/12/05 06:13:06;;;;;;;32.90;29.80;;;;;;;0.05;100.00;98170.20;105327;1293;22464;-87
2022/12/05 06:15:35;;;;;;;30.70;27.80;;;;;;;0.05;100.00;98172.33;104942;1302;22824;-92
2022/12/05 06:18:03;;;;;;;34.40;31.30;;;;;;;0.03;100.00;98183.97;104814;1330;22199;-89
2022/12/05 06:20:31;;;;;;;31.70;28.90;;;;;;;0.05;100.00;98188.91;104832;1329;22224;-90
2022/12/05 06:22:59;;;;;;;34.90;32.00;;;;;;;0.08;100.00;98191.59;105151;1314;22244;-89
2022/12/05 06:25:27;;;;;;;36.20;32.90;;;;;;;0.08;100.00;98195.92;104780;1329;22145;-91
2022/12/05 06:28:12;;;;;;;31.50;28.70;;;;;;;0.07;100.00;98189.98;105057;1298;22286;-90
2022/12/05 06:30:40;;;;;;;39.40;35.80;;;;;;;0.59;100.00;98189.31;105150;1300;21957;-85
2022/12/05 06:33:08;;;;;;;40.70;37.20;;;;;;;0.54;100.00;98190.47;104824;1330;22094;-84
2022/12/05 06:36:04;;;;;;;36.20;33.00;;;;;;;0.43;100.00;98191.30;104857;1330;22770;-87
2022/12/05 06:38:33;;;;;;;36.80;33.60;;;;;;;0.34;100.00;98188.68;105115;1322;22091;-86
2022/12/05 06:41:10;;;;;;;40.20;36.80;;;;;;;0.30;100.00;98186.98;104859;1328;22054;-85
2022/12/05 06:43:38;;;;;;;36.80;33.60;;;;;;;0.28;100.00;98181.36;104789;1322;22234;-82
2022/12/05 06:46:08;;;;;;;35.50;32.20;;;;;;;0.22;100.00;98181.21;105176;1318;22281;-82
2022/12/05 06:48:36;;;;;;;31.70;28.80;;;;;;;0.18;100.00;98180.27;104771;1330;22206;-85
2022/12/05 06:51:05;;;;;;;32.00;29.30;;;;;;;0.12;100.00;98177.98;104789;1330;22184;-87
2022/12/05 06:53:33;;;;;;;31.10;28.50;;;;;;;0.09;100.00;98179.85;104665;1316;22240;-88
2022/12/05 06:56:04;;;;;;;31.10;28.50;;;;;;;0.07;100.00;98175.98;104698;1330;22762;-91
2022/12/05 06:58:34;;;;;;;28.60;26.00;;;;;;;0.04;100.00;98178.94;104679;1329;21948;-90
2022/12/05 07:03:48;;;;;;;31.60;28.90;;;;;;;0.03;100.00;98187.55;104835;1329;22220;-89
2022/12/05 07:06:16;;;;;;;34.20;31.20;;;;;;;0.03;100.00;98191.71;104733;1322;22209;-90
2022/12/05 07:08:44;;;;;;;32.00;28.90;;;;;;;0.04;100.00;98193.91;104796;1326;22211;-85
2022/12/05 07:11:12;;;;;;;28.30;25.70;;;;;;;0.06;100.00;98193.92;104572;1330;22961;-86
2022/12/05 07:13:41;;;;;;;30.60;27.80;;;;;;;0.09;100.00;98191.09;104939;1308;22931;-85
2022/12/05 07:16:09;;;;;;;28.00;25.60;;;;;;;0.12;100.00;98193.58;104959;1322;22256;-86
2022/12/05 07:18:37;;;;;;;28.50;26.10;;;;;;;0.12;100.00;98199.91;104970;1314;22207;-86
2022/12/05 07:21:09;;;;;;;27.80;25.40;;;;;;;0.13;100.00;98196.28;104500;1333;160723;-86
2022/12/05 07:23:41;;;;;;;31.20;28.60;;;;;;;0.16;100.00;98203.16;104531;1330;22290;-85
2022/12/05 07:26:13;;;;;;;32.20;29.60;;;;;;;0.19;100.00;98202.23;104493;1336;22160;-87
2022/12/05 07:28:41;;;;;;;32.00;29.10;;;;;;;0.22;100.00;98200.55;104615;1324;22350;-87
2022/12/05 07:31:12;;;;;;;32.20;29.60;;;;;;;0.30;100.00;98202.04;104522;1329;22236;-89
2022/12/05 07:33:40;;;;;;;30.50;28.00;;;;;;;0.33;100.00;98201.70;104751;1326;22283;-85
2022/12/05 07:36:14;;;;;;;30.20;27.50;;;;;;;0.34;100.00;98198.34;104498;1334;22186;-85
2022/12/05 07:38:43;;;;;;;28.70;26.30;;;;;;;0.34;100.00;98200.30;104657;1330;22294;-86
2022/12/05 07:41:23;;;;;;;29.00;26.40;;;;;;;0.37;100.00;98202.02;104795;1311;22093;-87
2022/12/05 07:43:53;;;;;;;29.30;26.90;;;;;;;0.45;100.00;98209.54;104672;1329;22312;-85
2022/12/05 07:46:21;;;;;;;30.40;27.60;;;;;;;0.51;100.00;98208.15;104932;1317;22340;-86
2022/12/05 07:48:50;;;;;;;30.00;27.40;;;;;;;0.59;100.00;98202.67;104629;1330;22221;-86
2022/12/05 07:51:20;;;;;;;30.80;28.30;;;;;;;0.67;100.00;98201.66;104607;1324;22240;-87
2022/12/05 07:53:48;;;;;;;31.00;28.40;;;;;;;0.73;100.00;98205.79;104532;1324;22879;-86
2022/12/05 07:56:17;;;;;;;30.20;27.60;;;;;;;0.74;100.00;98211.02;104818;1323;22196;-87
2022/12/05 07:58:47;;;;;;;31.40;28.60;;;;;;;0.75;100.00;98209.55;104653;1331;22132;-87
2022/12/05 08:01:23;;;;;;;29.50;27.00;;;;;;;0.78;100.00;98208.45;104709;1332;22282;-88
2022/12/05 08:03:53;;;;;;;30.00;27.20;;;;;;;0.82;100.00;98204.40;104953;1317;22115;-87
2022/12/05 08:06:25;;;;;;;30.80;27.90;;;;;;;0.86;100.00;98206.95;104644;1329;22123;-88
2022/12/05 08:08:54;;;;;;;35.50;32.10;;;;;;;0.91;100.00;98203.78;104747;1329;22174;-87
2022/12/05 08:11:29;;;;;;;34.80;31.60;;;;;;;0.97;100.00;98204.89;104888;1309;22109;-87
2022/12/05 08:13:58;;;;;;;35.30;32.30;;;;;;;1.00;100.00;98207.56;104636;1328;22343;-86
2022/12/05 08:16:28;;;;;;;34.20;31.20;;;;;;;1.02;100.00;98203.20;104655;1329;22097;-88
2022/12/05 08:19:02;;;;;;;34.70;31.70;;;;;;;1.04;100.00;98205.10;104696;1318;22136;-87
2022/12/05 08:21:31;;;;;;;33.50;30.50;;;;;;;1.07;100.00;98201.56;104537;1329;22226;-86
2022/12/05 08:23:59;;;;;;;33.30;30.40;;;;;;;1.10;100.00;98206.67;104500;1329;22255;-87
2022/12/05 08:26:29;;;;;;;32.50;29.70;;;;;;;1.15;100.00;98205.85;104850;1308;22779;-87
2022/12/05 08:29:02;;;;;;;31.70;28.90;;;;;;;1.16;100.00;98205.49;104692;1329;22244;-87
2022/12/05 08:31:32;;;;;;;35.30;32.20;;;;;;;1.19;100.00;98206.20;104778;1329;22182;-87
2022/12/05 08:34:01;;;;;;;34.00;31.00;;;;;;;1.19;100.00;98205.02;104725;1325;22799;-86
2022/12/05 08:36:29;;;;;;;35.60;32.50;;;;;;;1.22;100.00;98203.35;104535;1332;22332;-88
2022/12/05 08:39:01;;;;;;;35.10;32.10;;;;;;;1.31;100.00;98199.58;104544;1329;22191;-88
2022/12/05 08:41:29;;;;;;;33.20;30.30;;;;;;;1.37;100.00;98200.81;104771;1329;22119;-86
2022/12/05 08:44:01;;;;;;;35.90;32.90;;;;;;;1.42;100.00;98203.74;104927;1320;22219;-86
2022/12/05 08:46:32;;;;;;;36.90;33.70;;;;;;;1.50;100.00;98205.56;104958;1305;22205;-87
2022/12/05 08:49:02;;;;;;;39.70;36.40;;;;;;;1.58;100.00;98208.39;104921;1322;22192;-85
2022/12/05 08:51:31;;;;;;;36.90;33.60;;;;;;;1.60;100.00;98205.36;104614;1329;22977;-87
2022/12/05 08:54:02;;;;;;;36.20;32.90;;;;;;;1.63;100.00;98204.18;104968;1311;22173;-88
2022/12/05 08:56:31;;;;;;;42.60;38.80;;;;;;;1.65;100.00;98206.64;104499;1327;22208;-87
2022/12/05 08:59:01;;;;;;;39.50;36.10;;;;;;;1.69;100.00;98202.63;104958;1314;22103;-87
2022/12/05 09:01:37;;;;;;;38.60;35.10;;;;;;;1.73;100.00;98197.65;104674;1329;22125;-88
2022/12/05 09:04:06;;;;;;;39.00;35.60;;;;;;;1.70;100.00;98193.84;104634;1329;22210;-87
2022/12/05 09:06:35;;;;;;;41.60;37.90;;;;;;;1.69;100.00;98194.77;104518;1321;22398;-86
2022/12/05 09:09:05;;;;;;;38.60;35.10;;;;;;;1.73;100.00;98194.79;104601;1330;22802;-88
2022/12/05 09:11:36;;;;;;;37.40;34.00;;;;;;;1.77;100.00;98201.26;104736;1329;22246;-86
2022/12/05 09:14:04;;;;;;;36.60;33.40;;;;;;;1.84;100.00;98197.94;104542;1330;22749;-87
2022/12/05 09:16:34;;;;;;;37.20;34.10;;;;;;;1.91;100.00;98193.08;104733;1323;22207;-88
2022/12/05 09:19:19;;;;;;;39.00;35.40;;;;;;;1.98;100.00;98187.54;104565;1329;22029;-86
2022/12/05 09:21:48;;;;;;;38.90;35.50;;;;;;;2.06;100.00;98184.98;104724;1329;22842;-86
2022/12/05 09:24:16;;;;;;;40.40;37.00;;;;;;;2.14;100.00;98183.20;104532;1330;22227;-87
2022/12/05 09:26:44;;;;;;;42.90;38.80;;;;;;;2.20;100.00;98173.66;104653;1324;22189;-87
2022/12/05 09:29:13;;;;;;;42.60;38.90;;;;;;;2.23;100.00;98169.30;104807;1329;22413;-87
2022/12/05 09:31:46;;;;;;;40.50;36.80;;;;;;;2.27;100.00;98165.98;104825;1317;22200;-86
2022/12/05 09:34:16;;;;;;;41.60;37.70;;;;;;;2.33;100.00;98157.52;104525;1329;22211;-87
2022/12/05 09:36:50;;;;;;;40.80;37.00;;;;;;;2.41;100.00;98155.25;104484;1330;22492;-86
2022/12/05 09:39:28;;;;;;;44.10;40.20;;;;;;;2.49;100.00;98151.68;104741;1329;22119;-88
2022/12/05 09:42:18;;;;;;;43.40;39.90;;;;;;;2.62;100.00;98156.09;104526;1330;22249;-87
2022/12/05 09:45:04;;;;;;;41.90;38.30;;;;;;;2.71;100.00;98150.29;104715;1329;22244;-86
2022/12/05 09:47:48;;;;;;;40.90;37.40;;;;;;;2.75;100.00;98151.89;104737;1329;22353;-87
2022/12/05 09:50:16;;;;;;;39.40;36.10;;;;;;;2.83;100.00;98151.27;104824;1311;22177;-87
2022/12/05 09:53:03;;;;;;;36.00;32.90;;;;;;;2.88;100.00;98150.45;104988;1313;22520;-87
2022/12/05 09:55:42;;;;;;;36.80;33.60;;;;;;;2.95;100.00;98150.24;104640;1330;22198;-89
2022/12/05 09:58:29;;;;;;;36.30;32.90;;;;;;;3.02;100.00;98143.89;104879;1320;22793;-87
2022/12/05 10:01:02;;;;;;;39.30;36.00;;;;;;;3.07;100.00;98138.70;104517;1330;22215;-87
2022/12/05 10:03:44;;;;;;;39.10;35.70;;;;;;;3.10;100.00;98141.14;104659;1324;22224;-88
2022/12/05 10:06:27;;;;;;;36.90;33.70;;;;;;;3.15;100.00;98140.69;104505;1330;22099;-89
2022/12/05 10:09:41;;;;;;;34.80;31.80;;;;;;;3.21;100.00;98137.73;104884;1322;23030;-88
2022/12/05 10:12:09;;;;;;;39.10;35.70;;;;;;;3.26;100.00;98133.54;104638;1329;22276;-88
2022/12/05 10:15:02;;;;;;;39.10;35.70;;;;;;;3.28;100.00;98141.08;104713;1325;22202;-89
2022/12/05 10:17:34;;;;;;;39.50;36.10;;;;;;;3.30;100.00;98142.98;104761;1330;22199;-87
2022/12/05 10:20:15;;;;;;;38.20;34.80;;;;;;;3.33;100.00;98146.16;104758;1329;22149;-88
2022/12/05 10:22:50;;;;;;;38.00;34.60;;;;;;;3.40;100.00;98143.15;104738;1329;22219;-89
2022/12/05 10:25:21;;;;;;;38.70;35.40;;;;;;;3.50;100.00;98142.48;104609;1329;22217;-89
2022/12/05 10:27:55;;;;;;;42.90;39.00;;;;;;;3.58;100.00;98138.81;104814;1322;22180;-87
2022/12/05 10:30:28;;;;;;;44.60;40.70;;;;;;;3.72;100.00;98129.17;104731;1330;22134;-90
2022/12/05 10:32:59;;;;;;;48.90;44.60;;;;;;;3.80;100.00;98127.41;104527;1332;22899;-88
2022/12/05 10:35:34;;;;;;;48.50;44.30;;;;;;;3.90;100.00;98128.05;104539;1329;22115;-89
2022/12/05 10:38:05;;;;;;;43.70;39.60;;;;;;;4.02;100.00;98130.85;104715;1329;22238;-86
2022/12/05 10:40:45;;;;;;;42.70;39.10;;;;;;;4.16;100.00;98131.15;104675;1328;22148;-88
2022/12/05 10:43:22;;;;;;;40.80;37.30;;;;;;;4.31;100.00;98124.36;104535;1325;22947;-88
2022/12/05 10:45:50;;;;;;;41.10;37.50;;;;;;;4.41;100.00;98124.14;104483;1329;22184;-88
2022/12/05 10:48:20;;;;;;;38.80;35.20;;;;;;;4.46;100.00;98123.97;104692;1324;22116;-90
2022/12/05 10:50:54;;;;;;;41.20;37.50;;;;;;;4.53;100.00;98122.64;104931;1322;22059;-88
2022/12/05 10:53:40;;;;;;;40.60;37.10;;;;;;;4.64;100.00;98127.39;104783;1318;22126;-87
2022/12/05 10:56:48;;;;;;;45.00;41.10;;;;;;;4.81;100.00;98130.98;104733;1329;22236;-89
2022/12/05 10:59:19;;;;;;;40.10;36.40;;;;;;;4.96;100.00;98128.48;104293;1328;22128;-86
2022/12/05 11:01:51;;;;;;;36.30;33.30;;;;;;;4.99;100.00;98121.35;104462;1321;22280;-87
2022/12/05 11:04:27;;;;;;;38.30;34.60;;;;;;;5.02;100.00;98121.15;104167;1326;22336;-86
2022/12/05 11:07:01;;;;;;;40.70;37.10;;;;;;;5.09;100.00;98123.98;104219;1337;23038;-87
2022/12/05 11:09:36;;;;;;;46.50;42.30;;;;;;;5.18;100.00;98121.41;104125;1338;23011;-86
2022/12/05 11:12:21;;;;;;;39.90;36.40;;;;;;;5.41;100.00;98122.18;104405;1320;23015;-86
2022/12/05 11:14:56;;;;;;;40.20;36.70;;;;;;;6.42;99.90;98114.71;104116;1338;22360;-87
2022/12/05 11:17:37;;;;;;;44.20;40.40;;;;;;;7.00;99.81;98108.73;104166;1338;23140;-88
2022/12/05 11:20:32;;;;;;;45.80;41.50;;;;;;;7.49;100.00;98100.79;104121;1338;22235;-86
2022/12/05 11:23:25;;;;;;;45.00;41.00;;;;;;;8.19;100.00;98096.39;104188;1338;22249;-87
2022/12/05 11:25:55;;;;;;;39.20;35.80;;;;;;;9.11;100.00;98089.64;104129;1338;22144;-87
2022/12/05 11:28:30;;;;;;;40.70;36.90;;;;;;;10.20;97.77;98085.79;104032;1341;22216;-87
2022/12/05 11:31:01;;;;;;;37.90;34.70;;;;;;;10.47;94.86;98088.73;104704;1316;22632;-87
2022/12/05 11:33:31;;;;;;;38.90;35.50;;;;;;;10.27;95.82;98092.46;104510;1329;22216;-87
2022/12/05 11:36:34;;;;;;;37.50;34.40;;;;;;;9.64;97.26;98094.61;104478;1329;22209;-89
2022/12/05 11:39:02;;;;;;;39.10;35.50;;;;;;;9.08;98.21;98095.33;104665;1330;22298;-87
2022/12/05 11:42:02;;;;;;;38.90;35.30;;;;;;;9.56;98.22;98095.58;104723;1323;22185;-88
2022/12/05 11:44:38;;;;;;;38.80;35.40;;;;;;;9.02;97.43;98096.13;104739;1323;22198;-85
2022/12/05 11:47:26;;;;;;;35.10;32.10;;;;;;;8.38;94.70;98099.36;104722;1329;22157;-86
2022/12/05 11:50:15;;;;;;;38.20;34.90;;;;;;;7.69;93.35;98097.40;104742;1330;22200;-88
2022/12/05 11:52:55;;;;;;;38.00;34.80;;;;;;;7.20;94.02;98095.55;104635;1329;22426;-86
2022/12/05 11:55:38;;;;;;;38.40;35.10;;;;;;;6.96;94.62;98096.63;105007;1322;22220;-87
2022/12/05 11:58:18;;;;;;;38.70;35.20;;;;;;;6.72;95.90;98099.59;104948;1315;22959;-86